KACJKTLH

Guest
Details From KACJ - SOUTHER FLD
To KTLH - Tallahassee Rgnl
Flight Number -
Tags generated
Created
Modified
Stats Distance 103 nm / 191 km
Max Altitude 4,400 ft / 1,341 m
Waypoints 3
Social Downloads 0
Likes 0
Share VATSIM

Download

Looking for another format? Having issues loading an existing format? Contact us
Advertisement - Login to hide

Notes

Basic altitude profile: - Ascent Rate: 1000ft/min - Ascent Speed: 200kts - Cruise Altitude: 35000ft - Cruise Speed: 225kts - Descent Rate: 750ft/min - Descent Speed: 170kts

Route

KACJ DESKS KTLH

ID Type Via Altitude Latitude Longitude Leg Dist Tot Dist Heading (true) Name
O KACJ APT - 0 ft / 0 m 32.11099˚ -84.18894˚ - 0 nm - SOUTHER FLD
DESKS FIX - 4,400 ft / 1,341 m 31.83311˚ -84.18338˚ 16 nm 16 nm 179° / 179° -
O KTLH APT - 0 ft / 0 m 30.39734˚ -84.35137˚ 86 nm 103 nm 186° / 186° Tallahassee Rgnl

Altitude Profile

Advertisement - Login to hide

KACJ

Details ICAO KACJ
Name SOUTHER FLD
Region United States
Timezone America/New_York (UTC-5.0)
Stats Elevation 471 ft / 144 m (AMSL)
Location 32.110993° -84.188940°
Runways 2
Magnetic Variation 5.047° W

METAR

KACJ 130735Z AUTO 31004KT 10SM CLR 03/M04 A3007 RMK AO2

Decode

TAF

Not found

Departure Runways

ID Width Length Bearing (true) Bearing (mag) Surface Threshold Offset Overrun Length
05 100 ft / 30 m 6,024 ft / 1,836 m 45.70° 50.75° Asphalt 0 ft / 0 m 0 ft / 0 m
09 75 ft / 23 m 3,781 ft / 1,152 m 90.90° 95.95° Asphalt 0 ft / 0 m 0 ft / 0 m
23 100 ft / 30 m 6,024 ft / 1,836 m 225.71° 230.76° Asphalt 0 ft / 0 m 0 ft / 0 m
27 75 ft / 23 m 3,781 ft / 1,152 m 270.91° 275.96° Asphalt 0 ft / 0 m 0 ft / 0 m

KTLH

Details ICAO KTLH (TLH)
Name Tallahassee Rgnl
Region United States
Timezone America/New_York (UTC-5.0)
Stats Elevation 81 ft / 25 m (AMSL)
Location 30.397340° -84.351373°
Runways 2
Magnetic Variation 4.706° W

METAR

KTLH 130653Z AUTO 32004KT 10SM CLR 04/01 A3006 RMK AO2 SLP178 T00390011

Decode

TAF

TAF KTLH 130520Z 1306/1406 30005KT P6SM SKC FM132100 24007KT P6SM FEW250

Decode

Destination Runways

ID Width Length Bearing (true) Bearing (mag) Surface Threshold Offset Overrun Length
09 150 ft / 46 m 7,986 ft / 2,434 m 89.47° 94.18° Asphalt 0 ft / 0 m 200 ft / 61 m
18 150 ft / 46 m 6,096 ft / 1,858 m 179.49° 184.20° Asphalt 0 ft / 0 m 151 ft / 46 m
27 150 ft / 46 m 7,986 ft / 2,434 m 269.48° 274.19° Asphalt 0 ft / 0 m 200 ft / 61 m
36 150 ft / 46 m 6,096 ft / 1,858 m 359.49° 4.20° Asphalt 0 ft / 0 m 161 ft / 49 m

Approach Navaids

Runway Type Ident Frequency Range Bearing (true) Bearing (mag) Slope Elevation
27 Localiser IPLQ 111.90 MHz 18 nm / 33 km 269.46° 274.17° - 82 ft / 25 m (AMSL)
27 Glidescope IPLQ 111.90 MHz 10 nm / 19 km 269.48° 274.18° 3.00° 49 ft / 15 m (AMSL)
36 Localiser ITLH 110.30 MHz 18 nm / 33 km 359.49° 4.20° - 82 ft / 25 m (AMSL)
36 Glidescope ITLH 110.30 MHz 10 nm / 19 km 359.49° 4.20° 3.00° 60 ft / 18 m (AMSL)